Station: Snowtown  

  Atmospheric Gas Attenuation - ITU Rec 676-11   ----------------- dB/100km -----------------
Date Time Temp RH % AH g/m3 Dew Point Wind Direction Speed kph Gust kph Barometer mB Rainfall Since 9am 24GHz 47GHz 76GHz 122GHz 134GHz 241GHz
09/05 22:40 11.8 96 10.11 11.2 11 11 1028.9 0 22.9 29.7 48.0 126.1 123.6 426.1
09/05 22:30 11.4 96 9.86 10.8 9 11 1029 0 22.4 29.4 47.2 123.8 120.6 415.7
09/05 22:20 11.2 96 9.73 10.6 9 11 1029 0 22.1 29.2 46.7 122.6 119.1 410.2
09/05 22:10 11.2 95 9.63 10.4 9 11 1029 0 21.9 29.1 46.3 121.5 117.6 405.2
09/05 22:00 11.5 95 9.81 10.7 13 13 1029 0 22.3 29.3 46.9 123.1 119.7 412.7
09/05 21:50 11.4 95 9.75 10.6 11 13 1029 0 22.2 29.2 46.7 122.5 119.0 410.2
09/05 21:40 11.4 94 9.65 10.5 11 13 1028.9 0 21.9 29.0 46.2 121.4 117.6 405.1
09/05 21:30 11.8 94 9.89 10.9 9 11 1028.9 0 22.4 29.3 47.0 123.5 120.4 415.0
09/05 21:20 12.1 94 10.08 11.2 9 11 1028.9 0 22.8 29.5 47.7 125.3 122.7 423.0
09/05 21:10 12.3 94 10.21 11.4 7 9 1029 0 23.1 29.7 48.1 126.5 124.2 428.4
09/05 21:00 12.2 94 10.14 11.3 9 11 1029.1 0 23.0 29.6 47.9 125.8 123.4 425.5
09/05 20:50 12.2 92 9.93 10.9 7 9 1029.1 0 22.5 29.2 47.0 123.4 120.4 415.0
09/05 20:40 12.7 93 10.35 11.6 9 11 1029 0 23.4 29.8 48.5 127.5 125.6 433.3
09/05 20:30 12.9 92 10.37 11.6 11 15 1029 0 23.4 29.8 48.5 127.4 125.6 433.2
09/05 20:20 13.3 91 10.51 11.9 11 13 1028.9 0 23.7 29.9 48.8 128.3 126.9 437.9
09/05 20:10 13.6 90 10.59 12 13 13 1028.9 0 23.8 29.9 49.0 128.8 127.5 440.2
09/05 20:00 13.8 90 10.72 12.2 13 17 1028.9 0 24.1 30.1 49.4 129.9 129.1 445.6
09/05 19:50 14 89 10.74 12.2 13 15 1029 0 24.1 30.1 49.4 129.9 129.0 445.5
09/05 19:40 14.3 89 10.93 12.5 13 17 1029 0 24.5 30.3 50.0 131.6 131.2 453.2
09/05 19:30 14.5 88 10.95 12.5 15 19 1029.1 0 24.6 30.3 50.0 131.5 131.2 453.1
09/05 19:20 14.6 88 11.01 12.6 17 17 1029.1 0 24.7 30.3 50.2 132.0 131.9 455.5
09/05 19:10 14.8 87 11.02 12.7 15 20 1029 0 24.7 30.3 50.1 131.8 131.7 454.8
09/05 19:00 15 86 11.03 12.7 15 19 1029 0 24.7 30.2 50.0 131.5 131.5 454.1
09/05 18:50 15 86 11.03 12.7 15 17 1028.9 0 24.7 30.2 50.0 131.5 131.5 454.1
09/05 18:40 15.1 85 10.97 12.6 15 17 1028.9 0 24.6 30.1 49.7 130.7 130.4 450.5
09/05 18:30 15.3 85 11.1 12.8 15 19 1028.9 0 24.8 30.2 50.1 131.8 131.9 455.8
09/05 18:20 15.4 84 11.04 12.7 13 13 1028.9 0 24.7 30.1 49.8 131.0 130.9 452.3
09/05 18:10 15.5 83 10.97 12.6 13 13 1028.8 0 24.5 29.9 49.4 130.0 129.7 448.2
09/05 18:00 15.7 83 11.1 12.8 13 19 1028.7 0 24.8 30.1 49.9 131.1 131.2 453.4
09/05 17:50 15.9 81 10.97 12.6 13 15 1028.6 0 24.5 29.8 49.2 129.3 129.1 445.8
09/05 17:40 16.1 80 10.97 12.7 13 15 1028.5 0 24.5 29.7 49.1 128.9 128.7 444.6
09/05 17:30 16.2 78 10.76 12.4 13 17 1028.4 0 24.0 29.3 48.1 126.4 125.6 433.8
09/05 17:20 16.3 78 10.82 12.5 15 17 1028.3 0 24.2 29.4 48.3 126.9 126.3 436.1
09/05 17:10 16.4 77 10.75 12.4 7 9 1028.2 0 24.0 29.2 47.9 125.9 125.1 432.1
09/05 17:00 16.4 76 10.61 12.2 7 11 1028.3 0 23.7 29.0 47.3 124.4 123.2 425.4
09/05 16:50 16.5 75 10.53 12.1 9 9 1028.2 0 23.5 28.8 46.9 123.3 121.9 420.9
09/05 16:40 16.5 74 10.39 11.9 11 11 1028.2 0 23.2 28.6 46.3 121.7 120.0 414.2
09/05 16:30 16.5 75 10.53 12.1 9 11 1028.2 0 23.5 28.8 46.9 123.3 121.9 420.9
09/05 16:20 16.5 76 10.67 12.3 9 11 1028.2 0 23.8 29.1 47.5 124.9 123.8 427.7
09/05 16:10 16.6 75 10.59 12.2 9 11 1028.2 0 23.7 28.9 47.1 123.8 122.6 423.3
09/05 16:00 16.6 73 10.31 11.7 11 13 1028.2 0 23.1 28.4 46.0 120.7 118.7 409.9
09/05 15:50 16.7 74 10.52 12 9 11 1028.2 0 23.5 28.7 46.8 122.9 121.5 419.4
09/05 15:40 16.7 74 10.52 12 11 13 1028.2 0 23.5 28.7 46.8 122.9 121.5 419.4
09/05 15:30 16.6 75 10.59 12.2 13 15 1028.3 0 23.7 28.9 47.1 123.8 122.6 423.3
09/05 15:20 16.9 74 10.64 12.2 11 13 1028.3 0 23.7 28.9 47.2 123.9 122.8 424.1
09/05 15:10 17 72 10.42 11.9 11 13 1028.3 0 23.3 28.5 46.2 121.3 119.6 413.0
09/05 15:00 16.8 73 10.44 11.9 13 17 1028.4 0 23.3 28.6 46.4 121.9 120.2 415.1
09/05 14:50 17 73 10.56 12.1 13 15 1028.3 0 23.6 28.7 46.8 122.9 121.5 419.7
09/05 14:40 17 73 10.56 12.1 13 15 1028.3 0 23.6 28.7 46.8 122.9 121.5 419.7
09/05 14:30 17 73 10.56 12.1 13 15 1028.3 0 23.6 28.7 46.8 122.9 121.5 419.7
09/05 14:20 17 71 10.27 11.7 13 15 1028.4 0 23.0 28.2 45.6 119.7 117.6 406.0
09/05 14:10 16.8 73 10.44 11.9 11 13 1028.5 0 23.3 28.6 46.4 121.9 120.2 415.1
09/05 14:00 16.7 73 10.37 11.8 13 20 1028.6 0 23.2 28.5 46.2 121.3 119.4 412.3
09/05 13:50 16.9 72 10.36 11.8 11 11 1028.7 0 23.2 28.4 46.0 120.9 119.0 410.8
09/05 13:40 16.5 74 10.39 11.9 13 13 1028.8 0 23.2 28.6 46.4 121.8 120.0 414.4
09/05 13:30 16.4 75 10.47 12 11 15 1029 0 23.4 28.8 46.8 122.9 121.3 418.9
09/05 13:20 16.4 76 10.61 12.2 11 13 1029.1 0 23.7 29.0 47.4 124.5 123.3 425.6
09/05 13:10 16.2 76 10.48 12 13 15 1029.2 0 23.4 28.9 46.9 123.3 121.8 420.5
09/05 13:00 16.1 76 10.42 11.9 13 17 1029.3 0 23.3 28.8 46.8 122.8 121.1 418.2
09/05 12:50 16.3 75 10.4 11.9 13 15 1029.3 0 23.3 28.7 46.6 122.3 120.5 416.1
09/05 12:40 16.2 76 10.48 12 15 15 1029.4 0 23.4 28.9 47.0 123.4 121.8 420.5
09/05 12:30 16.2 78 10.76 12.4 13 17 1029.6 0 24.0 29.4 48.2 126.5 125.7 434.2
09/05 12:20 16.2 77 10.62 12.2 13 15 1029.7 0 23.7 29.1 47.6 125.0 123.8 427.4
09/05 12:10 16.1 75 10.28 11.7 13 15 1029.9 0 23.0 28.6 46.2 121.3 119.3 411.6
09/05 12:00 15.9 77 10.43 11.9 9 15 1030.2 0 23.4 28.9 47.0 123.4 121.7 420.0
09/05 11:50 15.9 77 10.43 11.9 4 6 1030.3 0 23.4 28.9 47.0 123.4 121.7 420.0
09/05 11:40 15.6 78 10.37 11.8 9 11 1030.4 0 23.2 28.9 46.9 123.2 121.3 418.8
09/05 11:30 15.6 79 10.51 12 9 11 1030.6 0 23.5 29.2 47.5 124.8 123.3 425.6
09/05 11:20 15.4 81 10.64 12.2 7 9 1030.8 0 23.8 29.5 48.2 126.6 125.5 433.2
09/05 11:10 15.1 81 10.45 11.9 7 9 1030.9 0 23.4 29.3 47.6 124.9 123.3 425.5
09/05 11:00 15.2 81 10.51 12 6 11 1031.1 0 23.6 29.3 47.8 125.5 124.0 428.0
09/05 10:50 15.2 83 10.77 12.3 7 7 1031 0 24.1 29.8 48.9 128.4 127.6 440.8
09/05 10:40 14.8 83 10.51 11.9 7 7 1031 0 23.6 29.5 48.0 126.1 124.6 430.2
09/05 10:30 14.8 85 10.77 12.3 2 9 1031.1 0 24.1 29.9 49.1 129.1 128.3 443.1
09/05 10:20 14.3 84 10.32 11.6 6 7 1031.1 0 23.2 29.3 47.5 124.8 122.8 423.6
09/05 10:10 14.6 88 11.01 12.6 6 7 1031.1 0 24.7 30.4 50.3 132.2 132.1 456.2
09/05 10:00 14.1 85 10.32 11.6 6 9 1031.3 0 23.2 29.4 47.6 125.1 123.1 424.8
09/05 09:50 14.3 87 10.69 12.2 7 7 1031.1 0 24.0 29.9 49.1 129.0 128.0 442.0
09/05 09:40 14 88 10.61 12 7 7 1031.1 0 23.9 29.9 48.9 128.6 127.4 439.7
09/05 09:30 13.6 88 10.36 11.7 2 9 1031.3 0 23.3 29.6 48.1 126.4 124.5 429.5
09/05 09:20 13.4 90 10.46 11.8 0 0 1031.2 0 23.6 29.9 48.7 127.9 126.2 435.6
09/05 09:10 13.4 93 10.81 12.3 6 7 1031.2 0 24.3 30.5 50.2 132.0 131.3 453.2
09/05 09:00 13.1 93 10.61 12 4 6 1031.3 0 23.9 30.2 49.5 130.1 128.9 444.9
09/05 08:50 12.8 93 10.42 11.7 0 0 1031 0.4 23.5 30.0 48.9 128.4 126.6 436.9
09/05 08:40 12.7 94 10.46 11.8 4 6 1031 0.4 23.6 30.1 49.1 129.0 127.4 439.5
09/05 08:30 12.7 95 10.58 11.9 6 7 1031 0.4 23.9 30.3 49.6 130.4 129.1 445.6
09/05 08:20 12.5 96 10.56 11.9 6 7 1030.8 0.4 23.8 30.3 49.7 130.5 129.2 445.7
09/05 08:10 12.4 96 10.49 11.8 7 7 1030.8 0.4 23.7 30.2 49.4 129.8 128.3 442.7
09/05 08:00 12.3 97 10.53 11.8 6 7 1030.7 0.4 23.8 30.3 49.7 130.5 129.0 445.3
09/05 07:50 12.3 97 10.53 11.8 6 7 1030.7 0.4 23.8 30.3 49.7 130.5 129.0 445.3
09/05 07:40 12.2 97 10.47 11.7 4 6 1030.6 0.4 23.7 30.3 49.4 129.9 128.3 442.7
09/05 07:30 12.2 97 10.47 11.7 6 7 1030.6 0.4 23.7 30.3 49.4 129.9 128.3 442.7
09/05 07:20 12.1 97 10.4 11.6 6 6 1030.6 0.4 23.5 30.2 49.2 129.2 127.5 439.7
09/05 07:10 12.1 97 10.4 11.6 6 6 1030.5 0.4 23.5 30.2 49.2 129.2 127.5 439.7
09/05 07:00 12 97 10.34 11.5 6 7 1030.5 0.4 23.4 30.1 49.0 128.7 126.8 437.2
09/05 06:50 12.1 97 10.4 11.6 6 6 1030.5 0.4 23.5 30.2 49.2 129.2 127.5 439.7
09/05 06:40 12.1 97 10.4 11.6 7 7 1030.4 0.4 23.5 30.2 49.2 129.2 127.5 439.7
09/05 06:30 12.1 97 10.4 11.6 7 9 1030.3 0.4 23.5 30.2 49.2 129.2 127.4 439.6
09/05 06:20 12.1 97 10.4 11.6 7 7 1030.2 0.4 23.5 30.2 49.2 129.2 127.4 439.6
09/05 06:10 12.1 97 10.4 11.6 9 9 1030 0.4 23.5 30.2 49.2 129.2 127.4 439.5

Last Refresh: 09-May-2026 22:40:16

Bureau of Meteorology